sensor_id;sensor_type;location;lat;lon;timestamp;temperature;humidity
50570;DHT22;36525;49.398;7.614;2024-02-15T00:00:00;9.90;99.90
50570;DHT22;36525;49.398;7.614;2024-02-15T00:02:30;9.80;99.90
50570;DHT22;36525;49.398;7.614;2024-02-15T00:04:57;9.90;99.90
50570;DHT22;36525;49.398;7.614;2024-02-15T00:07:24;9.80;99.90
50570;DHT22;36525;49.398;7.614;2024-02-15T00:09:51;9.80;99.90
50570;DHT22;36525;49.398;7.614;2024-02-15T00:12:18;9.70;99.90
50570;DHT22;36525;49.398;7.614;2024-02-15T00:14:45;9.70;99.90
50570;DHT22;36525;49.398;7.614;2024-02-15T00:17:12;9.80;99.90
50570;DHT22;36525;49.398;7.614;2024-02-15T00:19:39;9.70;99.90
50570;DHT22;36525;49.398;7.614;2024-02-15T00:22:08;9.80;99.90
50570;DHT22;36525;49.398;7.614;2024-02-15T00:24:38;9.80;99.90
50570;DHT22;36525;49.398;7.614;2024-02-15T00:27:08;9.80;99.90
50570;DHT22;36525;49.398;7.614;2024-02-15T00:29:35;9.80;99.90
50570;DHT22;36525;49.398;7.614;2024-02-15T00:32:02;9.80;99.90
50570;DHT22;36525;49.398;7.614;2024-02-15T00:34:30;9.80;99.90
50570;DHT22;36525;49.398;7.614;2024-02-15T00:36:57;9.80;99.90
50570;DHT22;36525;49.398;7.614;2024-02-15T00:39:24;9.80;99.90
50570;DHT22;36525;49.398;7.614;2024-02-15T00:41:51;9.80;99.90
50570;DHT22;36525;49.398;7.614;2024-02-15T00:44:18;9.90;99.90
50570;DHT22;36525;49.398;7.614;2024-02-15T00:46:45;9.90;99.90
50570;DHT22;36525;49.398;7.614;2024-02-15T00:49:14;9.80;99.90
50570;DHT22;36525;49.398;7.614;2024-02-15T00:51:42;9.80;99.90
50570;DHT22;36525;49.398;7.614;2024-02-15T00:54:08;9.90;99.90
50570;DHT22;36525;49.398;7.614;2024-02-15T00:56:35;9.90;99.90
50570;DHT22;36525;49.398;7.614;2024-02-15T00:59:02;9.90;99.90
50570;DHT22;36525;49.398;7.614;2024-02-15T01:01:30;9.90;99.90
50570;DHT22;36525;49.398;7.614;2024-02-15T01:03:57;9.90;99.90
50570;DHT22;36525;49.398;7.614;2024-02-15T01:06:24;9.90;99.90
50570;DHT22;36525;49.398;7.614;2024-02-15T01:08:51;9.90;99.90
50570;DHT22;36525;49.398;7.614;2024-02-15T01:11:18;10.00;99.90
50570;DHT22;36525;49.398;7.614;2024-02-15T01:13:45;9.90;99.90
50570;DHT22;36525;49.398;7.614;2024-02-15T01:16:12;9.90;99.90
50570;DHT22;36525;49.398;7.614;2024-02-15T01:18:39;9.90;99.90
50570;DHT22;36525;49.398;7.614;2024-02-15T01:21:06;9.90;99.90
50570;DHT22;36525;49.398;7.614;2024-02-15T01:23:33;9.90;99.90
50570;DHT22;36525;49.398;7.614;2024-02-15T01:26:03;9.90;99.90
50570;DHT22;36525;49.398;7.614;2024-02-15T01:28:31;9.80;99.90
50570;DHT22;36525;49.398;7.614;2024-02-15T01:30:58;9.90;99.90
50570;DHT22;36525;49.398;7.614;2024-02-15T01:33:26;9.80;99.90
50570;DHT22;36525;49.398;7.614;2024-02-15T01:35:53;9.90;99.90
50570;DHT22;36525;49.398;7.614;2024-02-15T01:38:20;9.90;99.90
50570;DHT22;36525;49.398;7.614;2024-02-15T01:40:47;9.90;99.90
50570;DHT22;36525;49.398;7.614;2024-02-15T01:43:14;9.90;99.90
50570;DHT22;36525;49.398;7.614;2024-02-15T01:45:42;9.90;99.90
50570;DHT22;36525;49.398;7.614;2024-02-15T01:48:09;9.90;99.90
50570;DHT22;36525;49.398;7.614;2024-02-15T01:50:37;9.90;99.90
50570;DHT22;36525;49.398;7.614;2024-02-15T01:53:05;9.90;99.90
50570;DHT22;36525;49.398;7.614;2024-02-15T01:55:35;9.90;99.90
50570;DHT22;36525;49.398;7.614;2024-02-15T01:58:02;9.90;99.90
50570;DHT22;36525;49.398;7.614;2024-02-15T02:00:30;9.90;99.90
50570;DHT22;36525;49.398;7.614;2024-02-15T02:02:57;9.80;99.90
50570;DHT22;36525;49.398;7.614;2024-02-15T02:05:28;9.90;99.90
50570;DHT22;36525;49.398;7.614;2024-02-15T02:07:57;10.00;99.90
50570;DHT22;36525;49.398;7.614;2024-02-15T02:10:27;9.90;99.90
50570;DHT22;36525;49.398;7.614;2024-02-15T02:13:00;10.00;99.90
50570;DHT22;36525;49.398;7.614;2024-02-15T02:15:31;9.90;99.90
50570;DHT22;36525;49.398;7.614;2024-02-15T02:17:59;10.00;99.90
50570;DHT22;36525;49.398;7.614;2024-02-15T02:20:29;10.00;99.90
50570;DHT22;36525;49.398;7.614;2024-02-15T02:22:59;10.00;99.90
50570;DHT22;36525;49.398;7.614;2024-02-15T02:25:34;10.00;99.90
50570;DHT22;36525;49.398;7.614;2024-02-15T02:28:01;10.00;99.90
50570;DHT22;36525;49.398;7.614;2024-02-15T02:30:28;10.00;99.90
50570;DHT22;36525;49.398;7.614;2024-02-15T02:32:58;10.00;99.90
50570;DHT22;36525;49.398;7.614;2024-02-15T02:35:26;9.90;99.90
50570;DHT22;36525;49.398;7.614;2024-02-15T02:37:54;9.90;99.90
50570;DHT22;36525;49.398;7.614;2024-02-15T02:40:21;9.90;99.90
50570;DHT22;36525;49.398;7.614;2024-02-15T02:42:48;9.90;99.90
50570;DHT22;36525;49.398;7.614;2024-02-15T02:45:17;9.90;99.90
50570;DHT22;36525;49.398;7.614;2024-02-15T02:47:49;9.90;99.90
50570;DHT22;36525;49.398;7.614;2024-02-15T02:50:22;9.90;99.90
50570;DHT22;36525;49.398;7.614;2024-02-15T02:52:49;9.90;99.90
50570;DHT22;36525;49.398;7.614;2024-02-15T02:55:16;9.90;99.90
50570;DHT22;36525;49.398;7.614;2024-02-15T02:57:44;9.80;99.90
50570;DHT22;36525;49.398;7.614;2024-02-15T03:00:12;9.80;99.90
50570;DHT22;36525;49.398;7.614;2024-02-15T03:02:42;9.90;99.90
50570;DHT22;36525;49.398;7.614;2024-02-15T03:05:12;9.90;99.90
50570;DHT22;36525;49.398;7.614;2024-02-15T03:07:42;9.90;99.90
50570;DHT22;36525;49.398;7.614;2024-02-15T03:10:09;9.90;99.90
50570;DHT22;36525;49.398;7.614;2024-02-15T03:12:39;9.90;99.90
50570;DHT22;36525;49.398;7.614;2024-02-15T03:15:07;9.80;99.90
50570;DHT22;36525;49.398;7.614;2024-02-15T03:17:42;9.80;99.90
50570;DHT22;36525;49.398;7.614;2024-02-15T03:20:10;9.90;99.90
50570;DHT22;36525;49.398;7.614;2024-02-15T03:22:39;9.90;99.90
50570;DHT22;36525;49.398;7.614;2024-02-15T03:25:06;9.80;99.90
50570;DHT22;36525;49.398;7.614;2024-02-15T03:27:35;9.80;99.90
50570;DHT22;36525;49.398;7.614;2024-02-15T03:30:03;9.90;99.90
50570;DHT22;36525;49.398;7.614;2024-02-15T03:32:31;9.90;99.90
50570;DHT22;36525;49.398;7.614;2024-02-15T03:34:58;9.90;99.90
50570;DHT22;36525;49.398;7.614;2024-02-15T03:37:27;9.90;99.90
50570;DHT22;36525;49.398;7.614;2024-02-15T03:39:54;9.80;99.90
50570;DHT22;36525;49.398;7.614;2024-02-15T03:42:21;9.90;99.90
50570;DHT22;36525;49.398;7.614;2024-02-15T03:44:48;9.90;99.90
50570;DHT22;36525;49.398;7.614;2024-02-15T03:47:15;9.80;99.90
50570;DHT22;36525;49.398;7.614;2024-02-15T03:49:42;9.80;99.90
50570;DHT22;36525;49.398;7.614;2024-02-15T03:52:09;9.80;99.90
50570;DHT22;36525;49.398;7.614;2024-02-15T03:54:37;9.80;99.90
50570;DHT22;36525;49.398;7.614;2024-02-15T03:57:04;9.80;99.90
50570;DHT22;36525;49.398;7.614;2024-02-15T03:59:33;9.80;99.90
50570;DHT22;36525;49.398;7.614;2024-02-15T04:02:01;9.80;99.90
50570;DHT22;36525;49.398;7.614;2024-02-15T04:04:30;9.80;99.90
50570;DHT22;36525;49.398;7.614;2024-02-15T04:06:57;9.80;99.90
50570;DHT22;36525;49.398;7.614;2024-02-15T04:09:25;9.80;99.90
50570;DHT22;36525;49.398;7.614;2024-02-15T04:11:52;9.90;99.90
50570;DHT22;36525;49.398;7.614;2024-02-15T04:14:20;9.90;99.90
50570;DHT22;36525;49.398;7.614;2024-02-15T04:16:47;9.90;99.90
50570;DHT22;36525;49.398;7.614;2024-02-15T04:19:14;9.90;99.90
50570;DHT22;36525;49.398;7.614;2024-02-15T04:21:41;9.90;99.90
50570;DHT22;36525;49.398;7.614;2024-02-15T04:24:10;9.90;99.90
50570;DHT22;36525;49.398;7.614;2024-02-15T04:26:37;9.80;99.90
50570;DHT22;36525;49.398;7.614;2024-02-15T04:29:05;9.90;99.90
50570;DHT22;36525;49.398;7.614;2024-02-15T04:31:35;9.80;99.90
50570;DHT22;36525;49.398;7.614;2024-02-15T04:34:05;9.90;99.90
50570;DHT22;36525;49.398;7.614;2024-02-15T04:36:32;9.90;99.90
50570;DHT22;36525;49.398;7.614;2024-02-15T04:39:00;9.90;99.90
50570;DHT22;36525;49.398;7.614;2024-02-15T04:41:31;9.90;99.90
50570;DHT22;36525;49.398;7.614;2024-02-15T04:43:58;9.90;99.90
50570;DHT22;36525;49.398;7.614;2024-02-15T04:46:26;9.90;99.90
50570;DHT22;36525;49.398;7.614;2024-02-15T04:48:53;9.90;99.90
50570;DHT22;36525;49.398;7.614;2024-02-15T04:51:20;9.90;99.90
50570;DHT22;36525;49.398;7.614;2024-02-15T04:53:47;9.90;99.90
50570;DHT22;36525;49.398;7.614;2024-02-15T04:56:15;9.90;99.90
50570;DHT22;36525;49.398;7.614;2024-02-15T04:58:42;9.90;99.90
50570;DHT22;36525;49.398;7.614;2024-02-15T05:01:14;9.90;99.90
50570;DHT22;36525;49.398;7.614;2024-02-15T05:03:45;9.90;99.90
50570;DHT22;36525;49.398;7.614;2024-02-15T05:06:12;9.90;99.90
50570;DHT22;36525;49.398;7.614;2024-02-15T05:08:39;9.90;99.90
50570;DHT22;36525;49.398;7.614;2024-02-15T05:11:09;9.90;99.90
50570;DHT22;36525;49.398;7.614;2024-02-15T05:13:44;9.80;99.90
50570;DHT22;36525;49.398;7.614;2024-02-15T05:16:12;9.80;99.90
50570;DHT22;36525;49.398;7.614;2024-02-15T05:18:39;9.70;99.90
50570;DHT22;36525;49.398;7.614;2024-02-15T05:21:08;9.70;99.90
50570;DHT22;36525;49.398;7.614;2024-02-15T05:23:36;9.70;99.90
50570;DHT22;36525;49.398;7.614;2024-02-15T05:26:04;9.70;99.90
50570;DHT22;36525;49.398;7.614;2024-02-15T05:28:31;9.70;99.90
50570;DHT22;36525;49.398;7.614;2024-02-15T05:31:11;9.70;99.90
50570;DHT22;36525;49.398;7.614;2024-02-15T05:33:46;9.70;99.90
50570;DHT22;36525;49.398;7.614;2024-02-15T05:36:15;9.70;99.90
50570;DHT22;36525;49.398;7.614;2024-02-15T05:38:49;9.70;99.90
50570;DHT22;36525;49.398;7.614;2024-02-15T05:41:20;9.70;99.90
50570;DHT22;36525;49.398;7.614;2024-02-15T05:43:47;9.70;99.90
50570;DHT22;36525;49.398;7.614;2024-02-15T05:46:19;9.70;99.90
50570;DHT22;36525;49.398;7.614;2024-02-15T05:48:49;9.70;99.90
50570;DHT22;36525;49.398;7.614;2024-02-15T05:51:21;9.60;99.90
50570;DHT22;36525;49.398;7.614;2024-02-15T05:53:48;9.50;99.90
50570;DHT22;36525;49.398;7.614;2024-02-15T05:56:16;9.50;99.90
50570;DHT22;36525;49.398;7.614;2024-02-15T05:58:43;9.40;99.90
50570;DHT22;36525;49.398;7.614;2024-02-15T06:01:10;9.30;99.90
50570;DHT22;36525;49.398;7.614;2024-02-15T06:03:39;9.20;99.90
50570;DHT22;36525;49.398;7.614;2024-02-15T06:06:08;9.20;99.90
50570;DHT22;36525;49.398;7.614;2024-02-15T06:08:35;9.10;99.90
50570;DHT22;36525;49.398;7.614;2024-02-15T06:11:03;9.00;99.90
50570;DHT22;36525;49.398;7.614;2024-02-15T06:13:31;8.90;99.90
50570;DHT22;36525;49.398;7.614;2024-02-15T06:15:58;8.80;99.90
50570;DHT22;36525;49.398;7.614;2024-02-15T06:18:26;8.80;99.90
50570;DHT22;36525;49.398;7.614;2024-02-15T06:20:56;8.70;99.90
50570;DHT22;36525;49.398;7.614;2024-02-15T06:23:29;8.70;99.90
50570;DHT22;36525;49.398;7.614;2024-02-15T06:25:56;8.70;99.90
50570;DHT22;36525;49.398;7.614;2024-02-15T06:28:28;8.80;99.90
50570;DHT22;36525;49.398;7.614;2024-02-15T06:31:14;8.80;99.90
50570;DHT22;36525;49.398;7.614;2024-02-15T06:34:00;8.80;99.90
50570;DHT22;36525;49.398;7.614;2024-02-15T06:37:03;8.80;99.90
50570;DHT22;36525;49.398;7.614;2024-02-15T06:39:49;8.70;99.90
50570;DHT22;36525;49.398;7.614;2024-02-15T06:42:16;8.80;99.90
50570;DHT22;36525;49.398;7.614;2024-02-15T06:44:47;8.70;99.90
50570;DHT22;36525;49.398;7.614;2024-02-15T06:47:15;8.60;99.90
50570;DHT22;36525;49.398;7.614;2024-02-15T06:49:48;8.60;99.90
50570;DHT22;36525;49.398;7.614;2024-02-15T06:52:18;8.60;99.90
50570;DHT22;36525;49.398;7.614;2024-02-15T06:54:45;8.60;99.90
50570;DHT22;36525;49.398;7.614;2024-02-15T06:57:12;8.60;99.90
50570;DHT22;36525;49.398;7.614;2024-02-15T06:59:39;8.60;99.90
50570;DHT22;36525;49.398;7.614;2024-02-15T07:02:06;8.50;99.90
50570;DHT22;36525;49.398;7.614;2024-02-15T07:04:34;8.50;99.90
50570;DHT22;36525;49.398;7.614;2024-02-15T07:07:03;8.40;99.90
50570;DHT22;36525;49.398;7.614;2024-02-15T07:09:31;8.40;99.90
50570;DHT22;36525;49.398;7.614;2024-02-15T07:11:59;8.30;99.90
50570;DHT22;36525;49.398;7.614;2024-02-15T07:14:26;8.30;99.90
50570;DHT22;36525;49.398;7.614;2024-02-15T07:16:56;8.30;99.90
50570;DHT22;36525;49.398;7.614;2024-02-15T07:19:26;8.30;99.90
50570;DHT22;36525;49.398;7.614;2024-02-15T07:21:54;8.30;99.90
50570;DHT22;36525;49.398;7.614;2024-02-15T07:24:23;8.40;99.90
50570;DHT22;36525;49.398;7.614;2024-02-15T07:26:54;8.50;99.90
50570;DHT22;36525;49.398;7.614;2024-02-15T07:29:24;8.50;99.90
50570;DHT22;36525;49.398;7.614;2024-02-15T07:31:52;8.50;99.90
50570;DHT22;36525;49.398;7.614;2024-02-15T07:34:19;8.50;99.90
50570;DHT22;36525;49.398;7.614;2024-02-15T07:36:46;8.60;99.90
50570;DHT22;36525;49.398;7.614;2024-02-15T07:39:13;8.60;99.90
50570;DHT22;36525;49.398;7.614;2024-02-15T07:41:51;8.70;99.90
50570;DHT22;36525;49.398;7.614;2024-02-15T07:44:18;8.70;99.90
50570;DHT22;36525;49.398;7.614;2024-02-15T07:46:45;8.70;99.90
50570;DHT22;36525;49.398;7.614;2024-02-15T07:49:12;8.80;99.90
50570;DHT22;36525;49.398;7.614;2024-02-15T07:51:40;8.80;99.90
50570;DHT22;36525;49.398;7.614;2024-02-15T07:54:06;8.90;99.90
50570;DHT22;36525;49.398;7.614;2024-02-15T07:56:33;8.90;99.90
50570;DHT22;36525;49.398;7.614;2024-02-15T07:59:01;8.90;99.90
50570;DHT22;36525;49.398;7.614;2024-02-15T08:01:29;9.10;99.90
50570;DHT22;36525;49.398;7.614;2024-02-15T08:03:58;9.20;99.90
50570;DHT22;36525;49.398;7.614;2024-02-15T08:06:25;9.30;99.90
50570;DHT22;36525;49.398;7.614;2024-02-15T08:08:55;9.60;99.90
50570;DHT22;36525;49.398;7.614;2024-02-15T08:11:22;9.70;99.90
50570;DHT22;36525;49.398;7.614;2024-02-15T08:13:51;9.80;99.90
50570;DHT22;36525;49.398;7.614;2024-02-15T08:16:21;9.80;99.90
50570;DHT22;36525;49.398;7.614;2024-02-15T08:18:50;9.90;99.90
50570;DHT22;36525;49.398;7.614;2024-02-15T08:21:29;10.10;99.90
50570;DHT22;36525;49.398;7.614;2024-02-15T08:23:59;10.40;99.90
50570;DHT22;36525;49.398;7.614;2024-02-15T08:26:27;11.00;99.90
50570;DHT22;36525;49.398;7.614;2024-02-15T08:28:56;11.20;99.90
50570;DHT22;36525;49.398;7.614;2024-02-15T08:31:23;11.30;99.90
50570;DHT22;36525;49.398;7.614;2024-02-15T08:33:50;11.30;99.90
50570;DHT22;36525;49.398;7.614;2024-02-15T08:36:17;11.40;99.90
50570;DHT22;36525;49.398;7.614;2024-02-15T08:38:45;11.30;99.90
50570;DHT22;36525;49.398;7.614;2024-02-15T08:41:13;11.30;99.90
50570;DHT22;36525;49.398;7.614;2024-02-15T08:43:40;11.40;99.90
50570;DHT22;36525;49.398;7.614;2024-02-15T08:46:08;11.50;99.90
50570;DHT22;36525;49.398;7.614;2024-02-15T08:48:35;11.40;99.90
50570;DHT22;36525;49.398;7.614;2024-02-15T08:51:02;11.50;99.90
50570;DHT22;36525;49.398;7.614;2024-02-15T08:53:30;11.60;99.90
50570;DHT22;36525;49.398;7.614;2024-02-15T08:55:58;11.70;99.90
50570;DHT22;36525;49.398;7.614;2024-02-15T08:58:26;11.70;99.90
50570;DHT22;36525;49.398;7.614;2024-02-15T09:00:53;11.70;99.90
50570;DHT22;36525;49.398;7.614;2024-02-15T09:03:21;11.70;99.90
50570;DHT22;36525;49.398;7.614;2024-02-15T09:05:48;11.80;99.90
50570;DHT22;36525;49.398;7.614;2024-02-15T09:08:15;11.80;99.90
50570;DHT22;36525;49.398;7.614;2024-02-15T09:10:49;11.90;99.90
50570;DHT22;36525;49.398;7.614;2024-02-15T09:13:16;12.00;99.90
50570;DHT22;36525;49.398;7.614;2024-02-15T09:15:43;12.00;99.90
50570;DHT22;36525;49.398;7.614;2024-02-15T09:18:10;12.10;99.90
50570;DHT22;36525;49.398;7.614;2024-02-15T09:20:37;12.10;99.90
50570;DHT22;36525;49.398;7.614;2024-02-15T09:23:07;12.20;99.90
50570;DHT22;36525;49.398;7.614;2024-02-15T09:25:39;12.30;99.90
50570;DHT22;36525;49.398;7.614;2024-02-15T09:28:06;12.40;99.90
50570;DHT22;36525;49.398;7.614;2024-02-15T09:30:33;12.40;99.90
50570;DHT22;36525;49.398;7.614;2024-02-15T09:33:02;12.40;99.90
50570;DHT22;36525;49.398;7.614;2024-02-15T09:35:32;12.50;99.90
50570;DHT22;36525;49.398;7.614;2024-02-15T09:37:59;12.50;99.90
50570;DHT22;36525;49.398;7.614;2024-02-15T09:40:26;12.40;99.90
50570;DHT22;36525;49.398;7.614;2024-02-15T09:42:55;12.30;99.90
50570;DHT22;36525;49.398;7.614;2024-02-15T09:45:22;12.30;99.90
50570;DHT22;36525;49.398;7.614;2024-02-15T09:47:51;12.40;99.90
50570;DHT22;36525;49.398;7.614;2024-02-15T09:50:20;12.40;99.90
50570;DHT22;36525;49.398;7.614;2024-02-15T09:52:51;12.40;99.90
50570;DHT22;36525;49.398;7.614;2024-02-15T09:55:19;12.30;99.90
50570;DHT22;36525;49.398;7.614;2024-02-15T09:57:50;12.40;99.90
50570;DHT22;36525;49.398;7.614;2024-02-15T10:00:17;12.50;99.90
50570;DHT22;36525;49.398;7.614;2024-02-15T10:02:46;12.70;99.90
50570;DHT22;36525;49.398;7.614;2024-02-15T10:05:14;12.80;99.90
50570;DHT22;36525;49.398;7.614;2024-02-15T10:12:48;13.10;99.90
50570;DHT22;36525;49.398;7.614;2024-02-15T10:15:34;13.20;99.90
50570;DHT22;36525;49.398;7.614;2024-02-15T10:18:05;13.20;99.90
50570;DHT22;36525;49.398;7.614;2024-02-15T10:20:41;13.20;99.90
50570;DHT22;36525;49.398;7.614;2024-02-15T10:23:12;13.20;99.90
50570;DHT22;36525;49.398;7.614;2024-02-15T10:25:43;13.20;99.90
50570;DHT22;36525;49.398;7.614;2024-02-15T10:28:11;13.40;99.90
50570;DHT22;36525;49.398;7.614;2024-02-15T10:30:39;13.50;99.90
50570;DHT22;36525;49.398;7.614;2024-02-15T10:33:10;13.60;99.90
50570;DHT22;36525;49.398;7.614;2024-02-15T10:36:05;13.60;99.90
50570;DHT22;36525;49.398;7.614;2024-02-15T10:38:34;13.60;99.90
50570;DHT22;36525;49.398;7.614;2024-02-15T10:41:05;13.70;99.90
50570;DHT22;36525;49.398;7.614;2024-02-15T10:43:33;13.80;99.90
50570;DHT22;36525;49.398;7.614;2024-02-15T10:46:00;13.70;99.90
50570;DHT22;36525;49.398;7.614;2024-02-15T10:48:27;13.80;99.90
50570;DHT22;36525;49.398;7.614;2024-02-15T10:51:03;13.90;99.90
50570;DHT22;36525;49.398;7.614;2024-02-15T10:53:31;13.90;99.90
50570;DHT22;36525;49.398;7.614;2024-02-15T10:56:03;13.90;99.90
50570;DHT22;36525;49.398;7.614;2024-02-15T10:58:59;13.90;99.90
50570;DHT22;36525;49.398;7.614;2024-02-15T11:01:29;13.90;99.90
50570;DHT22;36525;49.398;7.614;2024-02-15T11:03:59;14.00;99.90
50570;DHT22;36525;49.398;7.614;2024-02-15T11:06:27;14.00;99.90
50570;DHT22;36525;49.398;7.614;2024-02-15T11:08:56;14.00;99.90
50570;DHT22;36525;49.398;7.614;2024-02-15T11:11:24;14.00;99.90
50570;DHT22;36525;49.398;7.614;2024-02-15T11:16:51;14.00;99.90
50570;DHT22;36525;49.398;7.614;2024-02-15T11:19:52;13.90;99.90
50570;DHT22;36525;49.398;7.614;2024-02-15T11:22:14;13.90;99.90
50570;DHT22;36525;49.398;7.614;2024-02-15T11:24:48;13.90;99.90
50570;DHT22;36525;49.398;7.614;2024-02-15T11:27:26;13.90;99.90
50570;DHT22;36525;49.398;7.614;2024-02-15T11:29:54;14.00;99.90
50570;DHT22;36525;49.398;7.614;2024-02-15T11:32:44;14.10;99.90
50570;DHT22;36525;49.398;7.614;2024-02-15T11:35:22;14.20;99.90
50570;DHT22;36525;49.398;7.614;2024-02-15T11:40:28;14.30;99.90
50570;DHT22;36525;49.398;7.614;2024-02-15T11:43:08;14.20;99.90
50570;DHT22;36525;49.398;7.614;2024-02-15T11:45:37;14.30;99.90
50570;DHT22;36525;49.398;7.614;2024-02-15T11:48:09;14.50;99.90
50570;DHT22;36525;49.398;7.614;2024-02-15T11:50:40;14.60;99.90
50570;DHT22;36525;49.398;7.614;2024-02-15T11:53:08;14.90;99.90
50570;DHT22;36525;49.398;7.614;2024-02-15T11:55:37;14.80;99.90
50570;DHT22;36525;49.398;7.614;2024-02-15T11:58:05;14.80;99.90
50570;DHT22;36525;49.398;7.614;2024-02-15T12:00:36;14.80;99.90
50570;DHT22;36525;49.398;7.614;2024-02-15T12:03:23;14.90;99.90
50570;DHT22;36525;49.398;7.614;2024-02-15T12:06:27;15.00;99.90
50570;DHT22;36525;49.398;7.614;2024-02-15T12:09:17;15.10;99.90
50570;DHT22;36525;49.398;7.614;2024-02-15T12:12:03;15.00;99.90
50570;DHT22;36525;49.398;7.614;2024-02-15T12:14:48;15.20;99.90
50570;DHT22;36525;49.398;7.614;2024-02-15T12:17:34;15.30;99.90
50570;DHT22;36525;49.398;7.614;2024-02-15T12:20:19;15.30;99.90
50570;DHT22;36525;49.398;7.614;2024-02-15T12:22:51;15.30;99.90
50570;DHT22;36525;49.398;7.614;2024-02-15T12:25:19;15.30;99.90
50570;DHT22;36525;49.398;7.614;2024-02-15T12:27:54;15.30;99.90
50570;DHT22;36525;49.398;7.614;2024-02-15T12:30:22;15.20;99.90
50570;DHT22;36525;49.398;7.614;2024-02-15T12:32:52;15.20;99.90
50570;DHT22;36525;49.398;7.614;2024-02-15T12:35:37;15.30;99.90
50570;DHT22;36525;49.398;7.614;2024-02-15T12:38:04;15.40;99.90
50570;DHT22;36525;49.398;7.614;2024-02-15T12:40:32;15.50;99.90
50570;DHT22;36525;49.398;7.614;2024-02-15T12:43:00;15.60;99.90
50570;DHT22;36525;49.398;7.614;2024-02-15T12:45:27;15.50;99.90
50570;DHT22;36525;49.398;7.614;2024-02-15T12:47:56;15.60;99.90
50570;DHT22;36525;49.398;7.614;2024-02-15T12:50:28;15.60;99.90
50570;DHT22;36525;49.398;7.614;2024-02-15T12:52:56;15.50;99.90
50570;DHT22;36525;49.398;7.614;2024-02-15T12:55:32;15.50;99.90
50570;DHT22;36525;49.398;7.614;2024-02-15T12:58:03;15.50;99.90
50570;DHT22;36525;49.398;7.614;2024-02-15T13:00:35;15.60;99.90
50570;DHT22;36525;49.398;7.614;2024-02-15T13:03:06;15.60;99.90
50570;DHT22;36525;49.398;7.614;2024-02-15T13:05:38;15.50;99.90
50570;DHT22;36525;49.398;7.614;2024-02-15T13:08:07;15.20;99.90
50570;DHT22;36525;49.398;7.614;2024-02-15T13:10:41;15.10;99.90
50570;DHT22;36525;49.398;7.614;2024-02-15T13:13:08;15.10;99.90
50570;DHT22;36525;49.398;7.614;2024-02-15T13:15:41;15.00;99.90
50570;DHT22;36525;49.398;7.614;2024-02-15T13:18:08;15.00;99.90
50570;DHT22;36525;49.398;7.614;2024-02-15T13:20:38;14.90;99.90
50570;DHT22;36525;49.398;7.614;2024-02-15T13:23:09;14.80;99.90
50570;DHT22;36525;49.398;7.614;2024-02-15T13:25:49;14.90;99.90
50570;DHT22;36525;49.398;7.614;2024-02-15T13:28:16;14.90;99.90
50570;DHT22;36525;49.398;7.614;2024-02-15T13:30:43;14.90;99.90
50570;DHT22;36525;49.398;7.614;2024-02-15T13:33:12;14.80;99.90
50570;DHT22;36525;49.398;7.614;2024-02-15T13:35:40;14.90;99.90
50570;DHT22;36525;49.398;7.614;2024-02-15T13:38:08;14.90;99.90
50570;DHT22;36525;49.398;7.614;2024-02-15T13:40:41;15.00;99.90
50570;DHT22;36525;49.398;7.614;2024-02-15T13:43:08;15.00;99.90
50570;DHT22;36525;49.398;7.614;2024-02-15T13:45:40;14.90;99.90
50570;DHT22;36525;49.398;7.614;2024-02-15T13:48:08;14.80;99.90
50570;DHT22;36525;49.398;7.614;2024-02-15T13:50:36;14.90;99.90
50570;DHT22;36525;49.398;7.614;2024-02-15T13:53:06;14.90;99.90
50570;DHT22;36525;49.398;7.614;2024-02-15T13:55:35;15.10;99.90
50570;DHT22;36525;49.398;7.614;2024-02-15T13:58:03;15.30;99.90
50570;DHT22;36525;49.398;7.614;2024-02-15T14:00:30;15.40;99.90
50570;DHT22;36525;49.398;7.614;2024-02-15T14:03:01;15.50;99.90
50570;DHT22;36525;49.398;7.614;2024-02-15T14:05:29;15.40;99.90
50570;DHT22;36525;49.398;7.614;2024-02-15T14:07:59;15.30;99.90
50570;DHT22;36525;49.398;7.614;2024-02-15T14:10:30;15.40;99.90
50570;DHT22;36525;49.398;7.614;2024-02-15T14:13:00;15.40;99.90
50570;DHT22;36525;49.398;7.614;2024-02-15T14:15:32;15.30;99.90
50570;DHT22;36525;49.398;7.614;2024-02-15T14:20:34;15.40;99.90
50570;DHT22;36525;49.398;7.614;2024-02-15T14:23:02;15.40;99.90
50570;DHT22;36525;49.398;7.614;2024-02-15T14:25:32;15.40;99.90
50570;DHT22;36525;49.398;7.614;2024-02-15T14:28:01;15.40;99.90
50570;DHT22;36525;49.398;7.614;2024-02-15T14:30:29;15.40;99.90
50570;DHT22;36525;49.398;7.614;2024-02-15T14:33:15;15.30;99.90
50570;DHT22;36525;49.398;7.614;2024-02-15T14:35:45;15.20;99.90
50570;DHT22;36525;49.398;7.614;2024-02-15T14:38:13;15.20;99.90
50570;DHT22;36525;49.398;7.614;2024-02-15T14:40:41;15.30;99.90
50570;DHT22;36525;49.398;7.614;2024-02-15T14:43:12;15.10;99.90
50570;DHT22;36525;49.398;7.614;2024-02-15T14:45:43;15.00;99.90
50570;DHT22;36525;49.398;7.614;2024-02-15T14:48:10;14.90;99.90
50570;DHT22;36525;49.398;7.614;2024-02-15T14:50:37;14.90;99.90
50570;DHT22;36525;49.398;7.614;2024-02-15T14:53:04;14.90;99.90
50570;DHT22;36525;49.398;7.614;2024-02-15T14:55:31;14.90;99.90
50570;DHT22;36525;49.398;7.614;2024-02-15T14:57:58;14.90;99.90
50570;DHT22;36525;49.398;7.614;2024-02-15T15:00:30;15.00;99.90
50570;DHT22;36525;49.398;7.614;2024-02-15T15:03:03;15.00;99.90
50570;DHT22;36525;49.398;7.614;2024-02-15T15:05:31;15.00;99.90
50570;DHT22;36525;49.398;7.614;2024-02-15T15:08:16;15.10;99.90
50570;DHT22;36525;49.398;7.614;2024-02-15T15:11:02;15.00;99.90
50570;DHT22;36525;49.398;7.614;2024-02-15T15:13:48;15.00;99.90
50570;DHT22;36525;49.398;7.614;2024-02-15T15:16:14;14.90;99.90
50570;DHT22;36525;49.398;7.614;2024-02-15T15:18:46;14.90;99.90
50570;DHT22;36525;49.398;7.614;2024-02-15T15:21:17;14.90;99.90
50570;DHT22;36525;49.398;7.614;2024-02-15T15:23:45;15.00;99.90
50570;DHT22;36525;49.398;7.614;2024-02-15T15:26:18;15.00;99.90
50570;DHT22;36525;49.398;7.614;2024-02-15T15:28:45;15.10;99.90
50570;DHT22;36525;49.398;7.614;2024-02-15T15:31:12;15.10;99.90
50570;DHT22;36525;49.398;7.614;2024-02-15T15:33:41;15.10;99.90
50570;DHT22;36525;49.398;7.614;2024-02-15T15:36:08;15.00;99.90
50570;DHT22;36525;49.398;7.614;2024-02-15T15:38:37;14.90;99.90
50570;DHT22;36525;49.398;7.614;2024-02-15T15:41:06;14.80;99.90
50570;DHT22;36525;49.398;7.614;2024-02-15T15:43:36;14.60;99.90
50570;DHT22;36525;49.398;7.614;2024-02-15T15:46:04;14.60;99.90
50570;DHT22;36525;49.398;7.614;2024-02-15T15:48:32;14.60;99.90
50570;DHT22;36525;49.398;7.614;2024-02-15T15:51:00;14.50;99.90
50570;DHT22;36525;49.398;7.614;2024-02-15T15:53:32;14.40;99.90
50570;DHT22;36525;49.398;7.614;2024-02-15T15:56:01;14.40;99.90
50570;DHT22;36525;49.398;7.614;2024-02-15T15:58:28;14.30;99.90
50570;DHT22;36525;49.398;7.614;2024-02-15T16:00:55;14.20;99.90
50570;DHT22;36525;49.398;7.614;2024-02-15T16:03:22;14.10;99.90
50570;DHT22;36525;49.398;7.614;2024-02-15T16:05:50;14.10;99.90